createdAt,value
2023-01-13T00:01:52.755Z,4.67
2023-01-13T00:04:20.226Z,4.70
2023-01-13T00:06:48.029Z,4.40
2023-01-13T00:09:15.536Z,3.63
2023-01-13T00:11:44.908Z,5.10
2023-01-13T00:14:12.378Z,4.10
2023-01-13T00:16:39.937Z,3.83
2023-01-13T00:19:07.389Z,3.60
2023-01-13T00:21:34.929Z,3.97
2023-01-13T00:24:02.480Z,3.57
2023-01-13T00:26:36.256Z,2.83
2023-01-13T00:29:03.761Z,2.63
2023-01-13T00:31:31.455Z,2.70
2023-01-13T00:34:00.620Z,2.50
2023-01-13T00:36:30.881Z,3.20
2023-01-13T00:38:58.999Z,3.00
2023-01-13T00:41:27.327Z,2.87
2023-01-13T00:43:54.682Z,3.40
2023-01-13T00:46:23.086Z,2.60
2023-01-13T00:48:51.733Z,2.57
2023-01-13T00:51:21.669Z,2.43
2023-01-13T00:53:51.634Z,2.10
2023-01-13T00:56:38.561Z,2.90
2023-01-13T00:59:14.499Z,2.10
2023-01-13T01:01:42.361Z,2.10
2023-01-13T01:04:09.927Z,2.90
2023-01-13T01:06:37.454Z,2.37
2023-01-13T01:09:05.892Z,2.47
2023-01-13T01:11:34.568Z,2.47
2023-01-13T01:14:03.602Z,2.63
2023-01-13T01:16:32.825Z,2.20
2023-01-13T01:19:01.465Z,2.60
2023-01-13T01:21:29.554Z,2.43
2023-01-13T01:24:01.561Z,3.33
2023-01-13T01:26:30.603Z,2.97
2023-01-13T01:28:58.960Z,2.90
2023-01-13T01:31:32.522Z,3.00
2023-01-13T01:34:01.627Z,2.87
2023-01-13T01:36:34.943Z,2.70
2023-01-13T01:39:02.631Z,2.97
2023-01-13T01:41:33.119Z,2.77
2023-01-13T01:44:07.479Z,3.13
2023-01-13T01:46:44.218Z,2.80
2023-01-13T01:49:31.392Z,2.23
2023-01-13T01:52:09.489Z,2.07
2023-01-13T01:54:51.334Z,1.97
2023-01-13T01:57:30.566Z,2.63
2023-01-13T02:00:01.039Z,1.90
2023-01-13T02:02:30.586Z,2.30
2023-01-13T02:05:00.112Z,1.83
2023-01-13T02:07:31.564Z,1.80
2023-01-13T02:10:05.625Z,2.07
2023-01-13T02:12:33.433Z,2.63
2023-01-13T02:15:12.399Z,2.10
2023-01-13T02:18:30.921Z,2.10
2023-01-13T02:21:19.460Z,3.17
2023-01-13T02:24:53.303Z,1.80
2023-01-13T02:27:41.848Z,2.57
2023-01-13T02:31:02.055Z,2.10
2023-01-13T02:33:59.986Z,1.13
2023-01-13T02:36:49.979Z,1.43
2023-01-13T02:39:41.897Z,1.13
2023-01-13T02:42:40.930Z,1.20
2023-01-13T02:45:16.861Z,1.53
2023-01-13T02:47:47.893Z,2.00
2023-01-13T02:50:21.536Z,1.60
2023-01-13T02:52:58.719Z,1.53
2023-01-13T02:55:39.859Z,1.53
2023-01-13T02:58:10.946Z,1.83
2023-01-13T03:00:38.991Z,4.13
2023-01-13T03:03:06.216Z,3.27
2023-01-13T03:05:33.938Z,2.80
2023-01-13T03:08:24.890Z,2.37
2023-01-13T03:11:11.946Z,3.00
2023-01-13T03:14:09.086Z,2.27
2023-01-13T03:16:56.821Z,3.23
2023-01-13T03:20:02.078Z,2.97
2023-01-13T03:22:43.172Z,2.70
2023-01-13T03:25:28.826Z,2.43
2023-01-13T03:28:09.308Z,2.63
2023-01-13T03:31:03.961Z,1.83
2023-01-13T03:33:53.818Z,1.23
2023-01-13T03:36:25.771Z,4.47
2023-01-13T03:38:59.718Z,1.47
2023-01-13T03:41:38.374Z,3.53
2023-01-13T03:44:27.519Z,4.50
2023-01-13T03:47:09.698Z,3.97
2023-01-13T03:50:00.978Z,4.57
2023-01-13T03:52:47.926Z,4.63
2023-01-13T03:55:23.477Z,5.53
2023-01-13T03:57:58.622Z,4.63
2023-01-13T04:00:33.066Z,7.03
2023-01-13T04:03:12.556Z,6.93
2023-01-13T04:05:44.182Z,9.77
2023-01-13T04:08:28.496Z,6.83
2023-01-13T04:11:05.888Z,6.27
2023-01-13T04:13:39.207Z,7.17
2023-01-13T04:16:08.353Z,10.00
2023-01-13T04:18:39.137Z,9.47
2023-01-13T04:21:07.923Z,7.37
2023-01-13T04:23:35.343Z,9.60
2023-01-13T04:26:02.519Z,10.57
2023-01-13T04:28:29.777Z,11.13
2023-01-13T04:30:56.973Z,11.43
2023-01-13T04:33:24.290Z,9.00
2023-01-13T04:35:52.666Z,8.63
2023-01-13T04:38:22.350Z,11.23
2023-01-13T04:40:49.580Z,9.03
2023-01-13T04:43:17.540Z,6.47
2023-01-13T04:45:44.857Z,13.90
2023-01-13T04:48:12.583Z,11.10
2023-01-13T04:50:39.848Z,11.33
2023-01-13T04:53:07.766Z,9.43
2023-01-13T04:55:35.339Z,8.50
2023-01-13T04:58:10.902Z,13.03
2023-01-13T05:00:38.389Z,13.10
2023-01-13T05:03:05.549Z,10.97
2023-01-13T05:05:33.077Z,10.50
2023-01-13T05:08:00.539Z,7.60
2023-01-13T05:10:28.024Z,10.80
2023-01-13T05:13:13.662Z,10.63
2023-01-13T05:16:00.607Z,9.00
2023-01-13T05:18:29.826Z,7.43
2023-01-13T05:20:56.912Z,9.00
2023-01-13T05:23:42.513Z,10.57
2023-01-13T05:26:09.783Z,9.50
2023-01-13T05:28:37.098Z,8.23
2023-01-13T05:31:04.302Z,7.17
2023-01-13T05:33:31.489Z,8.00
2023-01-13T05:36:02.906Z,6.77
2023-01-13T05:38:30.035Z,8.50
2023-01-13T05:41:18.619Z,5.73
2023-01-13T05:43:46.037Z,8.10
2023-01-13T05:46:13.280Z,9.93
2023-01-13T05:48:43.016Z,8.90
2023-01-13T05:51:12.742Z,7.80
2023-01-13T05:53:42.857Z,8.13
2023-01-13T05:56:11.403Z,9.73
2023-01-13T05:58:38.769Z,6.00
2023-01-13T06:01:09.074Z,13.33
2023-01-13T06:03:36.860Z,9.93
2023-01-13T06:06:05.023Z,8.50
2023-01-13T06:08:32.786Z,7.27
2023-01-13T06:11:00.357Z,6.00
2023-01-13T06:13:28.112Z,10.70
2023-01-13T06:15:59.531Z,10.33
2023-01-13T06:18:27.715Z,10.30
2023-01-13T06:20:55.773Z,11.97
2023-01-13T06:23:23.343Z,12.77
2023-01-13T06:26:05.668Z,7.87
2023-01-13T06:28:33.395Z,13.67
2023-01-13T06:31:06.682Z,10.30
2023-01-13T06:33:39.716Z,13.13
2023-01-13T06:36:14.519Z,12.10
2023-01-13T06:38:45.874Z,10.60
2023-01-13T06:41:13.444Z,11.97
2023-01-13T06:43:40.963Z,16.93
2023-01-13T06:46:08.505Z,15.00
2023-01-13T06:48:36.034Z,9.43
2023-01-13T06:51:05.412Z,9.13
2023-01-13T06:53:32.984Z,15.53
2023-01-13T06:56:00.347Z,14.13
2023-01-13T06:58:27.989Z,15.63
2023-01-13T07:01:00.073Z,9.00
2023-01-13T07:03:27.325Z,10.07
2023-01-13T07:05:56.199Z,16.33
2023-01-13T07:08:24.489Z,13.13
2023-01-13T07:10:52.838Z,12.53
2023-01-13T07:13:38.846Z,11.13
2023-01-13T07:16:08.966Z,18.70
2023-01-13T07:18:36.814Z,17.70
2023-01-13T07:21:07.476Z,10.23
2023-01-13T07:23:37.699Z,18.93
2023-01-13T07:26:06.071Z,14.77
2023-01-13T07:28:34.077Z,9.97
2023-01-13T07:31:01.249Z,8.40
2023-01-13T07:33:28.441Z,15.93
2023-01-13T07:36:04.483Z,8.60
2023-01-13T07:38:33.407Z,15.33
2023-01-13T07:41:24.092Z,10.67
2023-01-13T07:43:52.341Z,13.30
2023-01-13T07:46:19.610Z,14.33
2023-01-13T07:48:48.745Z,15.63
2023-01-13T07:51:16.267Z,11.43
2023-01-13T07:53:43.646Z,10.07
2023-01-13T07:56:11.417Z,9.13
2023-01-13T07:58:38.721Z,12.80
2023-01-13T08:01:14.209Z,13.13
2023-01-13T08:03:41.683Z,11.57
2023-01-13T08:06:10.621Z,16.60
2023-01-13T08:08:39.071Z,9.83
2023-01-13T08:11:08.568Z,8.70
2023-01-13T08:13:36.017Z,17.83
2023-01-13T08:16:10.036Z,11.87
2023-01-13T08:18:38.374Z,14.83
2023-01-13T08:21:09.942Z,15.10
2023-01-13T08:23:37.488Z,9.90
2023-01-13T08:26:08.671Z,13.60
2023-01-13T08:28:36.312Z,16.37
2023-01-13T08:31:06.741Z,13.33
2023-01-13T08:33:34.216Z,15.40
2023-01-13T08:36:10.558Z,9.50
2023-01-13T08:38:39.178Z,10.17
2023-01-13T08:41:15.600Z,13.70
2023-01-13T08:43:42.834Z,11.77
2023-01-13T08:46:10.325Z,12.93
2023-01-13T08:48:37.623Z,12.83
2023-01-13T08:51:10.332Z,14.83
2023-01-13T08:53:37.793Z,12.73
2023-01-13T08:56:11.821Z,10.10
2023-01-13T08:58:39.328Z,10.27
2023-01-13T09:01:08.456Z,10.20
2023-01-13T09:03:36.213Z,17.57
2023-01-13T09:06:03.573Z,9.67
2023-01-13T09:08:31.009Z,10.10
2023-01-13T09:10:58.243Z,13.57
2023-01-13T09:13:25.501Z,9.90
2023-01-13T09:15:56.360Z,16.13
2023-01-13T09:18:23.946Z,9.13
2023-01-13T09:20:51.557Z,7.93
2023-01-13T09:23:18.720Z,17.67
2023-01-13T09:25:45.908Z,12.23
2023-01-13T09:28:13.016Z,10.37
2023-01-13T09:30:40.115Z,10.30
2023-01-13T09:33:26.216Z,16.20
2023-01-13T09:35:59.363Z,9.73
2023-01-13T09:38:27.065Z,11.10
2023-01-13T09:40:54.807Z,9.53
2023-01-13T09:43:53.815Z,6.50
2023-01-13T09:46:47.174Z,12.73
2023-01-13T09:49:31.443Z,12.33
2023-01-13T09:52:26.951Z,10.30
2023-01-13T09:55:04.097Z,14.77
2023-01-13T09:57:37.869Z,10.70
2023-01-13T10:00:22.924Z,14.90
2023-01-13T10:03:30.704Z,12.13
2023-01-13T10:06:36.052Z,10.70
2023-01-13T10:09:04.485Z,9.80
2023-01-13T10:11:59.435Z,12.57
2023-01-13T10:14:43.400Z,10.20
2023-01-13T10:17:37.768Z,12.17
2023-01-13T10:20:08.357Z,9.03
2023-01-13T10:23:09.496Z,10.33
2023-01-13T10:26:00.577Z,12.43
2023-01-13T10:28:27.908Z,9.47
2023-01-13T10:30:55.258Z,8.73
2023-01-13T10:33:31.121Z,8.23
2023-01-13T10:36:17.157Z,10.83
2023-01-13T10:38:50.400Z,12.07
2023-01-13T10:41:20.178Z,10.33
2023-01-13T10:44:08.460Z,13.17
2023-01-13T10:46:54.769Z,12.97
2023-01-13T10:49:38.784Z,6.17
2023-01-13T10:52:28.279Z,8.10
2023-01-13T10:54:56.221Z,11.43
2023-01-13T10:57:26.959Z,9.03
2023-01-13T10:59:55.453Z,9.10
2023-01-13T11:02:34.368Z,12.00
2023-01-13T11:05:25.250Z,12.07
2023-01-13T11:07:54.996Z,9.03
2023-01-13T11:10:28.780Z,11.33
2023-01-13T11:13:30.244Z,10.40
2023-01-13T11:16:14.773Z,9.77
2023-01-13T11:19:12.121Z,9.60
2023-01-13T11:22:07.362Z,8.93
2023-01-13T11:24:40.675Z,9.87
2023-01-13T11:27:22.067Z,9.67
2023-01-13T11:30:24.525Z,8.70
2023-01-13T11:33:09.905Z,9.60
2023-01-13T11:36:06.800Z,8.93
2023-01-13T11:39:03.677Z,9.20
2023-01-13T11:42:20.888Z,11.97
2023-01-13T11:45:24.500Z,8.77
2023-01-13T11:47:54.908Z,8.10
2023-01-13T11:51:08.542Z,8.83
2023-01-13T11:53:57.425Z,10.63
2023-01-13T11:57:11.963Z,9.60
2023-01-13T12:00:28.011Z,7.67
2023-01-13T12:03:27.996Z,6.57
2023-01-13T12:06:35.880Z,7.83
2023-01-13T12:09:28.466Z,9.37
2023-01-13T12:12:22.955Z,7.83
2023-01-13T12:15:24.169Z,9.37
2023-01-13T12:18:18.993Z,7.13
2023-01-13T12:21:20.709Z,5.97
2023-01-13T12:24:13.252Z,7.53
2023-01-13T12:26:53.141Z,5.33
2023-01-13T12:29:29.055Z,7.63
2023-01-13T12:31:57.287Z,5.83
2023-01-13T12:34:38.124Z,7.50
2023-01-13T12:37:45.518Z,8.30
2023-01-13T12:40:21.989Z,7.10
2023-01-13T12:43:38.881Z,6.13
2023-01-13T12:46:21.670Z,7.03
2023-01-13T12:48:57.151Z,7.97
2023-01-13T12:51:40.194Z,9.27
2023-01-13T12:54:43.496Z,7.97
2023-01-13T12:57:24.351Z,6.60
2023-01-13T13:00:04.048Z,6.83
2023-01-13T13:02:33.280Z,9.17
2023-01-13T13:05:15.819Z,8.40
2023-01-13T13:07:52.242Z,5.27
2023-01-13T13:10:29.039Z,5.13
2023-01-13T13:13:18.255Z,8.60
2023-01-13T13:15:51.400Z,6.60
2023-01-13T13:18:20.406Z,7.67
2023-01-13T13:21:14.158Z,8.57
2023-01-13T13:24:03.133Z,4.60
2023-01-13T13:26:38.738Z,8.10
2023-01-13T13:29:27.036Z,7.93
2023-01-13T13:32:25.614Z,8.47
2023-01-13T13:35:08.350Z,5.70
2023-01-13T13:38:38.852Z,6.13
2023-01-13T13:41:43.528Z,7.10
2023-01-13T13:44:57.218Z,5.43
2023-01-13T13:47:24.696Z,7.07
2023-01-13T13:49:56.957Z,4.50
2023-01-13T13:53:05.201Z,5.33
2023-01-13T13:55:33.266Z,5.20
2023-01-13T13:58:01.753Z,7.13
2023-01-13T14:00:35.616Z,6.80
2023-01-13T14:03:31.806Z,4.13
2023-01-13T14:06:05.830Z,3.37
2023-01-13T14:08:38.976Z,6.93
2023-01-13T14:11:28.727Z,6.87
2023-01-13T14:14:17.347Z,6.23
2023-01-13T14:16:46.473Z,8.20
2023-01-13T14:19:30.278Z,8.57
2023-01-13T14:22:01.954Z,8.23
2023-01-13T14:24:31.816Z,6.13
2023-01-13T14:27:18.109Z,4.73
2023-01-13T14:29:46.050Z,6.17
2023-01-13T14:32:19.013Z,6.77
2023-01-13T14:34:46.743Z,6.37
2023-01-13T14:37:33.576Z,4.93
2023-01-13T14:40:42.694Z,5.13
2023-01-13T14:43:16.307Z,7.07
2023-01-13T14:45:59.795Z,8.40
2023-01-13T14:48:38.756Z,5.47
2023-01-13T14:51:10.965Z,5.30
2023-01-13T14:53:47.230Z,5.63
2023-01-13T14:56:47.148Z,6.83
2023-01-13T14:59:40.058Z,12.30
2023-01-13T15:02:33.089Z,5.97
2023-01-13T15:05:20.004Z,9.23
2023-01-13T15:07:54.661Z,5.70
2023-01-13T15:10:38.189Z,4.83
2023-01-13T15:13:07.660Z,4.50
2023-01-13T15:15:39.968Z,8.07
2023-01-13T15:18:17.224Z,6.57
2023-01-13T15:20:45.777Z,3.03
2023-01-13T15:23:13.253Z,5.77
2023-01-13T15:25:43.520Z,6.40
2023-01-13T15:28:32.197Z,6.33
2023-01-13T15:31:01.787Z,5.87
2023-01-13T15:33:29.352Z,5.73
2023-01-13T15:35:56.928Z,5.17
2023-01-13T15:38:25.131Z,7.30
2023-01-13T15:40:53.375Z,7.47
2023-01-13T15:43:42.806Z,5.00
2023-01-13T15:46:35.668Z,3.83
2023-01-13T15:49:27.106Z,5.33
2023-01-13T15:51:54.644Z,8.60
2023-01-13T15:54:24.605Z,5.53
2023-01-13T15:56:52.926Z,8.47
2023-01-13T15:59:24.664Z,5.57
2023-01-13T16:01:52.035Z,7.80
2023-01-13T16:04:19.377Z,6.63
2023-01-13T16:06:47.625Z,4.97
2023-01-13T16:09:16.891Z,5.40
2023-01-13T16:11:44.373Z,5.73
2023-01-13T16:14:11.722Z,4.27
2023-01-13T16:16:39.291Z,8.00
2023-01-13T16:19:06.703Z,4.43
2023-01-13T16:21:34.046Z,5.27
2023-01-13T16:24:01.435Z,5.03
2023-01-13T16:26:30.284Z,5.87
2023-01-13T16:28:58.725Z,7.20
2023-01-13T16:31:34.488Z,5.70
2023-01-13T16:34:03.898Z,5.97
2023-01-13T16:36:37.225Z,6.87
2023-01-13T16:39:06.053Z,10.70
2023-01-13T16:41:34.787Z,5.97
2023-01-13T16:44:06.104Z,6.00
2023-01-13T16:46:34.218Z,8.73
2023-01-13T16:49:06.679Z,7.33
2023-01-13T16:51:34.046Z,5.97
2023-01-13T16:54:01.515Z,5.73
2023-01-13T16:56:32.760Z,8.57
2023-01-13T16:59:09.174Z,7.60
2023-01-13T17:01:39.961Z,7.00
2023-01-13T17:04:14.887Z,5.97
2023-01-13T17:07:04.550Z,7.03
2023-01-13T17:09:32.109Z,8.23
2023-01-13T17:11:59.902Z,8.67
2023-01-13T17:14:27.334Z,4.83
2023-01-13T17:16:58.771Z,4.63
2023-01-13T17:19:26.670Z,6.70
2023-01-13T17:21:54.011Z,8.63
2023-01-13T17:24:21.675Z,4.57
2023-01-13T17:26:50.976Z,7.00
2023-01-13T17:29:22.634Z,4.90
2023-01-13T17:31:51.913Z,3.63
2023-01-13T17:34:20.224Z,7.27
2023-01-13T17:36:48.491Z,6.90
2023-01-13T17:39:27.839Z,6.70
2023-01-13T17:41:58.263Z,5.33
2023-01-13T17:44:25.600Z,6.50
2023-01-13T17:46:53.044Z,4.23
2023-01-13T17:49:21.895Z,5.43
2023-01-13T17:51:51.219Z,5.90
2023-01-13T17:54:18.925Z,3.60
2023-01-13T17:56:46.580Z,2.50
2023-01-13T17:59:17.308Z,2.37
2023-01-13T18:01:45.676Z,3.63
2023-01-13T18:04:27.255Z,3.83
2023-01-13T18:06:56.779Z,4.27
2023-01-13T18:09:26.075Z,4.43
2023-01-13T18:11:53.434Z,4.60
2023-01-13T18:14:22.582Z,5.10
2023-01-13T18:16:53.802Z,4.47
2023-01-13T18:19:41.583Z,1.97
2023-01-13T18:22:31.894Z,3.27
2023-01-13T18:25:17.657Z,4.30
2023-01-13T18:27:45.194Z,2.40
2023-01-13T18:30:13.941Z,2.17
2023-01-13T18:32:42.286Z,2.20
2023-01-13T18:35:10.543Z,3.20
2023-01-13T18:37:40.480Z,3.00
2023-01-13T18:40:11.940Z,2.07
2023-01-13T18:42:51.737Z,1.93
2023-01-13T18:45:30.661Z,5.83
2023-01-13T18:48:01.592Z,5.27
2023-01-13T18:50:30.069Z,2.87
2023-01-13T18:52:57.948Z,5.07
2023-01-13T18:55:25.855Z,3.73
2023-01-13T18:57:53.863Z,4.83
2023-01-13T19:00:22.484Z,4.10
2023-01-13T19:05:38.707Z,5.07
2023-01-13T19:08:08.277Z,3.33
2023-01-13T19:10:37.454Z,5.60
2023-01-13T19:13:04.611Z,4.13
2023-01-13T19:15:31.932Z,2.80
2023-01-13T19:17:59.190Z,5.80
2023-01-13T19:20:26.411Z,3.90
2023-01-13T19:22:54.478Z,2.57
2023-01-13T19:25:21.898Z,4.17
2023-01-13T19:27:49.140Z,5.67
2023-01-13T19:30:17.394Z,5.80
2023-01-13T19:32:44.537Z,6.17
2023-01-13T19:35:17.180Z,3.60
2023-01-13T19:37:44.477Z,7.37
2023-01-13T19:40:13.892Z,3.30
2023-01-13T19:43:02.228Z,3.50
2023-01-13T19:45:32.145Z,17.37
2023-01-13T19:48:01.851Z,4.00
2023-01-13T19:50:29.303Z,6.50
2023-01-13T19:52:56.622Z,5.73
2023-01-13T19:55:24.668Z,5.40
2023-01-13T19:57:51.964Z,2.93
2023-01-13T20:00:21.023Z,5.57
2023-01-13T20:02:51.825Z,4.07
2023-01-13T20:05:22.436Z,3.03
2023-01-13T20:07:50.934Z,6.27
2023-01-13T20:10:21.115Z,6.17
2023-01-13T20:12:48.523Z,4.47
2023-01-13T20:15:16.087Z,5.60
2023-01-13T20:17:43.391Z,4.70
2023-01-13T20:20:11.820Z,5.50
2023-01-13T20:22:40.043Z,3.77
2023-01-13T20:25:08.969Z,3.70
2023-01-13T20:27:37.484Z,4.47
2023-01-13T20:30:09.408Z,3.60
2023-01-13T20:32:37.139Z,4.30
2023-01-13T20:35:05.456Z,4.30
2023-01-13T20:37:33.065Z,3.27
2023-01-13T20:40:04.938Z,5.50
2023-01-13T20:42:39.784Z,3.63
2023-01-13T20:45:07.693Z,4.70
2023-01-13T20:47:35.386Z,4.80
2023-01-13T20:50:02.582Z,4.67
2023-01-13T20:52:29.791Z,2.17
2023-01-13T20:54:57.045Z,4.37
2023-01-13T20:57:24.258Z,3.17
2023-01-13T20:59:51.528Z,4.43
2023-01-13T21:02:20.324Z,3.93
2023-01-13T21:04:48.032Z,4.47
2023-01-13T21:07:15.768Z,3.47
2023-01-13T21:09:43.488Z,6.20
2023-01-13T21:12:33.693Z,5.40
2023-01-13T21:15:21.769Z,3.00
2023-01-13T21:18:09.838Z,4.73
2023-01-13T21:20:39.245Z,3.90
2023-01-13T21:23:07.861Z,4.50
2023-01-13T21:25:37.231Z,3.30
2023-01-13T21:28:10.278Z,5.30
2023-01-13T21:30:39.127Z,3.17
2023-01-13T21:33:06.565Z,6.50
2023-01-13T21:35:37.097Z,3.07
2023-01-13T21:38:04.287Z,5.67
2023-01-13T21:40:31.557Z,4.60
2023-01-13T21:43:17.439Z,4.93
2023-01-13T21:46:05.300Z,4.17
2023-01-13T21:48:32.876Z,5.10
2023-01-13T21:51:01.420Z,6.93
2023-01-13T21:53:28.651Z,4.83
2023-01-13T21:55:55.933Z,6.40
2023-01-13T21:58:23.142Z,2.80
2023-01-13T22:00:50.472Z,5.53
2023-01-13T22:03:18.768Z,3.83
2023-01-13T22:05:46.561Z,3.10
2023-01-13T22:08:14.261Z,3.93
2023-01-13T22:10:57.449Z,5.10
2023-01-13T22:13:44.832Z,4.80
2023-01-13T22:16:12.231Z,6.07
2023-01-13T22:18:39.682Z,4.40
2023-01-13T22:21:06.980Z,4.93
2023-01-13T22:23:34.385Z,4.40
2023-01-13T22:26:03.172Z,6.57
2023-01-13T22:28:39.851Z,4.50
2023-01-13T22:31:13.624Z,5.57
2023-01-13T22:33:42.216Z,9.03
2023-01-13T22:36:10.640Z,4.87
2023-01-13T22:38:37.809Z,3.37
2023-01-13T22:41:08.573Z,7.10
2023-01-13T22:43:37.501Z,5.27
2023-01-13T22:46:09.596Z,6.13
2023-01-13T22:48:37.776Z,6.03
2023-01-13T22:51:12.248Z,7.37
2023-01-13T22:53:41.528Z,4.97
2023-01-13T22:56:18.056Z,9.20
2023-01-13T22:58:45.542Z,6.27
2023-01-13T23:01:17.250Z,6.23
2023-01-13T23:03:47.929Z,7.30
2023-01-13T23:06:18.184Z,5.87
2023-01-13T23:08:45.980Z,7.63
2023-01-13T23:11:17.121Z,6.57
2023-01-13T23:13:44.847Z,5.30
2023-01-13T23:16:16.672Z,5.67
2023-01-13T23:18:47.900Z,8.73
2023-01-13T23:21:19.271Z,7.23
2023-01-13T23:23:47.357Z,5.33
2023-01-13T23:26:15.466Z,8.47
2023-01-13T23:28:42.844Z,9.80
2023-01-13T23:31:18.417Z,6.93
2023-01-13T23:33:46.890Z,6.67
2023-01-13T23:36:18.512Z,8.53
2023-01-13T23:38:46.102Z,6.90
2023-01-13T23:41:20.225Z,7.07
2023-01-13T23:44:00.665Z,8.00
2023-01-13T23:46:30.725Z,4.90
2023-01-13T23:48:57.933Z,5.90
2023-01-13T23:51:26.436Z,8.43
2023-01-13T23:53:54.320Z,7.77
2023-01-13T23:56:25.441Z,6.67
2023-01-13T23:58:53.126Z,8.83
